PAKW

Details ICAO PAKW (KLW)
Name KLAWOCK
Region USA (Alaska)
Timezone Unknown (UTC+0.0)
Plans Departing 6
Arriving 11
Stats Elevation 80 ft / 24 m (AMSL)
Location 55.579232° -133.075997°
Runways 1
Magnetic Variation 18.549° E
Sunrise 2017-12-13 17:14:42 UTC / 2017-12-13 17:14:42 Local
Sunset 2017-12-14 00:21:29 UTC / 2017-12-14 00:21:29 Local
Advertisement - Login to hide

Runways

ID Width Length Bearing (true) Bearing (mag) Surface Threshold Offset Overrun Length
02 100 ft / 30 m 4,991 ft / 1,521 m 39.06° 20.51° Asphalt 0 ft / 0 m 0 ft / 0 m
20 100 ft / 30 m 4,991 ft / 1,521 m 219.07° 200.52° Asphalt 0 ft / 0 m 0 ft / 0 m

Map

Weather


0- 5 10 15 20 25 30 35+ Temperature / ° C

Clouds and Precipitation
Forecast for 2017-12-14 00:00 UTC. Updated an hour ago

Ground ~20,000 ft ~40,000 ft Winds

METAR

PAKW 131953Z AUTO 05004KT 9SM -RA BKN046 OVC050 08/08 A3029 RMK AO2 SLP259 P0009 T00830078 TSNO

TAF

PAKW 131736Z 1318/1418 06004KT P6SM -RA OVC025 WS020/15035KT FM132200 06007KT P6SM -RA SCT020 OVC040 WS020/16040KT FM140900 14010G20KT 4SM RA BR OVC025 WS020/15035KT FM141300 14010G20KT 4SM RA BR OVC015 WS020/17035KT AMD LTD TO CLD VIS AND WIND

Frequencies

Recorded 135.45 MHz ASOS
Unicom 120.90 MHz CTAF
Warning: Do not use this data for real-world aviation or navigation. No guarantee of current accuracy is given.